Terminal Aerodrome Forecast
Issued by NWS Sterling, VA

Current Version | Previous Version | Graphics & Text | Print | Product List | Glossary On
Versions: 1 2 3 4 5 6 7 8 9 10 11 12 13 14 15 16 17 18 19 20 21
000
FTUS41 KLWX 271134
TAFDCA
TAF
KDCA 271134Z 2712/2812 06005KT P6SM FEW009 FEW250
     FM271400 17006KT P6SM SCT250
     FM271700 18011G18KT P6SM FEW250
     FM272100 18014G22KT P6SM SCT050
     FM280900 25006KT 5SM BR BKN050=

USA.gov is the U.S. government's official web portal to all federal, state and local government web resources and services.